sensor_id;sensor_type;location;lat;lon;timestamp;P1;durP1;ratioP1;P2;durP2;ratioP2
47599;SDS011;33323;52.124;6.018;2023-05-07T00:02:26;6.55;;;3.70;;
47599;SDS011;33323;52.124;6.018;2023-05-07T00:04:53;7.45;;;3.80;;
47599;SDS011;33323;52.124;6.018;2023-05-07T00:07:20;6.32;;;3.97;;
47599;SDS011;33323;52.124;6.018;2023-05-07T00:09:47;5.05;;;3.85;;
47599;SDS011;33323;52.124;6.018;2023-05-07T00:12:14;6.55;;;4.13;;
47599;SDS011;33323;52.124;6.018;2023-05-07T00:14:41;6.72;;;4.90;;
47599;SDS011;33323;52.124;6.018;2023-05-07T00:17:08;6.88;;;5.22;;
47599;SDS011;33323;52.124;6.018;2023-05-07T00:19:35;8.45;;;6.68;;
47599;SDS011;33323;52.124;6.018;2023-05-07T00:22:02;9.80;;;6.30;;
47599;SDS011;33323;52.124;6.018;2023-05-07T00:24:29;11.70;;;5.57;;
47599;SDS011;33323;52.124;6.018;2023-05-07T00:26:57;9.50;;;6.28;;
47599;SDS011;33323;52.124;6.018;2023-05-07T00:29:24;9.15;;;6.43;;
47599;SDS011;33323;52.124;6.018;2023-05-07T00:31:51;8.85;;;6.00;;
47599;SDS011;33323;52.124;6.018;2023-05-07T00:34:20;8.38;;;6.28;;
47599;SDS011;33323;52.124;6.018;2023-05-07T00:36:47;8.52;;;6.22;;
47599;SDS011;33323;52.124;6.018;2023-05-07T00:39:14;5.95;;;5.35;;
47599;SDS011;33323;52.124;6.018;2023-05-07T00:41:41;8.27;;;6.25;;
47599;SDS011;33323;52.124;6.018;2023-05-07T00:44:08;8.13;;;6.00;;
47599;SDS011;33323;52.124;6.018;2023-05-07T00:46:35;11.82;;;5.82;;
47599;SDS011;33323;52.124;6.018;2023-05-07T00:49:03;8.70;;;6.18;;
47599;SDS011;33323;52.124;6.018;2023-05-07T00:51:32;9.68;;;6.28;;
47599;SDS011;33323;52.124;6.018;2023-05-07T00:54:00;7.15;;;5.45;;
47599;SDS011;33323;52.124;6.018;2023-05-07T00:56:29;9.90;;;6.05;;
47599;SDS011;33323;52.124;6.018;2023-05-07T00:58:56;8.75;;;5.43;;
47599;SDS011;33323;52.124;6.018;2023-05-07T01:01:23;7.15;;;5.03;;
47599;SDS011;33323;52.124;6.018;2023-05-07T01:03:50;7.07;;;5.68;;
47599;SDS011;33323;52.124;6.018;2023-05-07T01:06:17;5.72;;;5.05;;
47599;SDS011;33323;52.124;6.018;2023-05-07T01:08:47;5.47;;;4.50;;
47599;SDS011;33323;52.124;6.018;2023-05-07T01:11:16;6.95;;;5.35;;
47599;SDS011;33323;52.124;6.018;2023-05-07T01:13:46;7.13;;;5.10;;
47599;SDS011;33323;52.124;6.018;2023-05-07T01:16:15;5.18;;;4.45;;
47599;SDS011;33323;52.124;6.018;2023-05-07T01:21:17;9.68;;;4.93;;
47599;SDS011;33323;52.124;6.018;2023-05-07T01:23:44;5.57;;;4.40;;
47599;SDS011;33323;52.124;6.018;2023-05-07T01:26:13;5.40;;;4.60;;
47599;SDS011;33323;52.124;6.018;2023-05-07T01:28:43;5.75;;;4.57;;
47599;SDS011;33323;52.124;6.018;2023-05-07T01:31:11;5.22;;;4.30;;
47599;SDS011;33323;52.124;6.018;2023-05-07T01:33:40;5.72;;;4.45;;
47599;SDS011;33323;52.124;6.018;2023-05-07T01:36:08;8.00;;;5.10;;
47599;SDS011;33323;52.124;6.018;2023-05-07T01:38:36;6.32;;;4.78;;
47599;SDS011;33323;52.124;6.018;2023-05-07T01:41:05;5.32;;;4.82;;
47599;SDS011;33323;52.124;6.018;2023-05-07T01:43:33;8.73;;;5.35;;
47599;SDS011;33323;52.124;6.018;2023-05-07T01:46:00;8.50;;;4.60;;
47599;SDS011;33323;52.124;6.018;2023-05-07T01:48:29;6.95;;;4.78;;
47599;SDS011;33323;52.124;6.018;2023-05-07T01:50:56;5.47;;;4.40;;
47599;SDS011;33323;52.124;6.018;2023-05-07T01:53:23;7.97;;;3.88;;
47599;SDS011;33323;52.124;6.018;2023-05-07T01:55:50;5.15;;;4.07;;
47599;SDS011;33323;52.124;6.018;2023-05-07T01:58:19;4.63;;;3.83;;
47599;SDS011;33323;52.124;6.018;2023-05-07T02:00:47;4.70;;;4.30;;
47599;SDS011;33323;52.124;6.018;2023-05-07T02:03:14;7.07;;;4.60;;
47599;SDS011;33323;52.124;6.018;2023-05-07T02:05:50;5.82;;;5.15;;
47599;SDS011;33323;52.124;6.018;2023-05-07T02:08:32;7.28;;;4.53;;
47599;SDS011;33323;52.124;6.018;2023-05-07T02:11:00;5.20;;;3.95;;
47599;SDS011;33323;52.124;6.018;2023-05-07T02:13:28;6.65;;;3.63;;
47599;SDS011;33323;52.124;6.018;2023-05-07T02:15:58;6.60;;;4.15;;
47599;SDS011;33323;52.124;6.018;2023-05-07T02:18:26;6.10;;;4.93;;
47599;SDS011;33323;52.124;6.018;2023-05-07T02:20:53;5.80;;;4.57;;
47599;SDS011;33323;52.124;6.018;2023-05-07T02:23:20;7.13;;;5.38;;
47599;SDS011;33323;52.124;6.018;2023-05-07T02:25:48;6.60;;;4.90;;
47599;SDS011;33323;52.124;6.018;2023-05-07T02:28:15;6.30;;;5.57;;
47599;SDS011;33323;52.124;6.018;2023-05-07T02:30:50;6.63;;;4.57;;
47599;SDS011;33323;52.124;6.018;2023-05-07T02:33:18;6.32;;;5.38;;
47599;SDS011;33323;52.124;6.018;2023-05-07T02:35:46;7.22;;;5.72;;
47599;SDS011;33323;52.124;6.018;2023-05-07T02:38:14;7.15;;;5.60;;
47599;SDS011;33323;52.124;6.018;2023-05-07T02:40:42;7.78;;;5.07;;
47599;SDS011;33323;52.124;6.018;2023-05-07T02:43:09;7.78;;;5.25;;
47599;SDS011;33323;52.124;6.018;2023-05-07T02:45:38;5.30;;;4.43;;
47599;SDS011;33323;52.124;6.018;2023-05-07T02:48:06;4.13;;;3.67;;
47599;SDS011;33323;52.124;6.018;2023-05-07T02:50:33;4.82;;;4.32;;
47599;SDS011;33323;52.124;6.018;2023-05-07T02:53:01;4.72;;;4.22;;
47599;SDS011;33323;52.124;6.018;2023-05-07T02:55:28;7.00;;;4.72;;
47599;SDS011;33323;52.124;6.018;2023-05-07T02:57:55;6.60;;;4.22;;
47599;SDS011;33323;52.124;6.018;2023-05-07T03:00:23;8.18;;;5.60;;
47599;SDS011;33323;52.124;6.018;2023-05-07T03:03:20;7.35;;;5.57;;
47599;SDS011;33323;52.124;6.018;2023-05-07T03:05:47;11.40;;;6.38;;
47599;SDS011;33323;52.124;6.018;2023-05-07T03:08:14;6.68;;;5.45;;
47599;SDS011;33323;52.124;6.018;2023-05-07T03:10:41;8.95;;;5.15;;
47599;SDS011;33323;52.124;6.018;2023-05-07T03:13:08;8.65;;;5.97;;
47599;SDS011;33323;52.124;6.018;2023-05-07T03:15:36;5.47;;;4.47;;
47599;SDS011;33323;52.124;6.018;2023-05-07T03:18:03;4.68;;;4.22;;
47599;SDS011;33323;52.124;6.018;2023-05-07T03:20:30;7.03;;;4.50;;
47599;SDS011;33323;52.124;6.018;2023-05-07T03:22:58;5.47;;;4.47;;
47599;SDS011;33323;52.124;6.018;2023-05-07T03:25:25;9.23;;;4.78;;
47599;SDS011;33323;52.124;6.018;2023-05-07T03:27:52;7.07;;;4.32;;
47599;SDS011;33323;52.124;6.018;2023-05-07T03:30:22;7.03;;;5.45;;
47599;SDS011;33323;52.124;6.018;2023-05-07T03:32:50;7.18;;;4.85;;
47599;SDS011;33323;52.124;6.018;2023-05-07T03:35:17;8.02;;;5.72;;
47599;SDS011;33323;52.124;6.018;2023-05-07T03:37:45;7.47;;;4.85;;
47599;SDS011;33323;52.124;6.018;2023-05-07T03:40:12;7.55;;;5.50;;
47599;SDS011;33323;52.124;6.018;2023-05-07T03:42:45;11.15;;;8.55;;
47599;SDS011;33323;52.124;6.018;2023-05-07T03:45:13;13.32;;;9.93;;
47599;SDS011;33323;52.124;6.018;2023-05-07T03:47:44;13.38;;;9.75;;
47599;SDS011;33323;52.124;6.018;2023-05-07T03:50:15;12.82;;;10.32;;
47599;SDS011;33323;52.124;6.018;2023-05-07T03:52:43;14.60;;;10.07;;
47599;SDS011;33323;52.124;6.018;2023-05-07T03:55:11;15.38;;;11.63;;
47599;SDS011;33323;52.124;6.018;2023-05-07T03:57:45;16.58;;;12.68;;
47599;SDS011;33323;52.124;6.018;2023-05-07T04:00:12;18.10;;;13.00;;
47599;SDS011;33323;52.124;6.018;2023-05-07T04:02:49;18.63;;;13.00;;
47599;SDS011;33323;52.124;6.018;2023-05-07T04:08:00;18.48;;;12.10;;
47599;SDS011;33323;52.124;6.018;2023-05-07T04:10:37;16.90;;;12.95;;
47599;SDS011;33323;52.124;6.018;2023-05-07T04:13:08;16.90;;;14.35;;
47599;SDS011;33323;52.124;6.018;2023-05-07T04:15:36;17.33;;;14.05;;
47599;SDS011;33323;52.124;6.018;2023-05-07T04:18:06;23.48;;;16.17;;
47599;SDS011;33323;52.124;6.018;2023-05-07T04:20:34;21.40;;;16.92;;
47599;SDS011;33323;52.124;6.018;2023-05-07T04:23:08;24.77;;;16.48;;
47599;SDS011;33323;52.124;6.018;2023-05-07T04:25:35;23.40;;;16.15;;
47599;SDS011;33323;52.124;6.018;2023-05-07T04:28:28;25.52;;;16.33;;
47599;SDS011;33323;52.124;6.018;2023-05-07T04:30:57;21.60;;;15.75;;
47599;SDS011;33323;52.124;6.018;2023-05-07T04:33:25;23.17;;;17.45;;
47599;SDS011;33323;52.124;6.018;2023-05-07T04:35:53;17.77;;;14.98;;
47599;SDS011;33323;52.124;6.018;2023-05-07T04:38:20;19.48;;;14.85;;
47599;SDS011;33323;52.124;6.018;2023-05-07T04:40:51;19.08;;;16.05;;
47599;SDS011;33323;52.124;6.018;2023-05-07T04:43:22;24.40;;;16.55;;
47599;SDS011;33323;52.124;6.018;2023-05-07T04:45:50;18.52;;;15.68;;
47599;SDS011;33323;52.124;6.018;2023-05-07T04:48:19;24.98;;;17.52;;
47599;SDS011;33323;52.124;6.018;2023-05-07T04:50:52;24.33;;;17.83;;
47599;SDS011;33323;52.124;6.018;2023-05-07T04:53:20;21.38;;;16.67;;
47599;SDS011;33323;52.124;6.018;2023-05-07T04:55:49;25.05;;;16.55;;
47599;SDS011;33323;52.124;6.018;2023-05-07T04:58:24;21.23;;;17.48;;
47599;SDS011;33323;52.124;6.018;2023-05-07T05:00:52;23.20;;;17.85;;
47599;SDS011;33323;52.124;6.018;2023-05-07T05:03:19;25.65;;;18.95;;
47599;SDS011;33323;52.124;6.018;2023-05-07T05:05:46;27.38;;;19.30;;
47599;SDS011;33323;52.124;6.018;2023-05-07T05:08:15;22.65;;;17.48;;
47599;SDS011;33323;52.124;6.018;2023-05-07T05:10:43;25.52;;;18.25;;
47599;SDS011;33323;52.124;6.018;2023-05-07T05:13:10;24.90;;;18.33;;
47599;SDS011;33323;52.124;6.018;2023-05-07T05:15:40;28.98;;;20.30;;
47599;SDS011;33323;52.124;6.018;2023-05-07T05:18:07;28.08;;;20.63;;
47599;SDS011;33323;52.124;6.018;2023-05-07T05:20:34;24.25;;;20.05;;
47599;SDS011;33323;52.124;6.018;2023-05-07T05:23:01;28.67;;;21.23;;
47599;SDS011;33323;52.124;6.018;2023-05-07T05:25:30;28.10;;;20.55;;
47599;SDS011;33323;52.124;6.018;2023-05-07T05:27:57;25.60;;;19.70;;
47599;SDS011;33323;52.124;6.018;2023-05-07T05:30:25;28.60;;;21.55;;
47599;SDS011;33323;52.124;6.018;2023-05-07T05:32:52;30.48;;;21.90;;
47599;SDS011;33323;52.124;6.018;2023-05-07T05:35:19;28.02;;;21.73;;
47599;SDS011;33323;52.124;6.018;2023-05-07T05:37:46;33.25;;;21.27;;
47599;SDS011;33323;52.124;6.018;2023-05-07T05:40:15;29.20;;;21.45;;
47599;SDS011;33323;52.124;6.018;2023-05-07T05:42:42;30.08;;;22.85;;
47599;SDS011;33323;52.124;6.018;2023-05-07T05:45:11;27.90;;;21.85;;
47599;SDS011;33323;52.124;6.018;2023-05-07T05:47:38;31.95;;;22.17;;
47599;SDS011;33323;52.124;6.018;2023-05-07T05:50:06;33.33;;;22.75;;
47599;SDS011;33323;52.124;6.018;2023-05-07T05:52:34;32.70;;;23.20;;
47599;SDS011;33323;52.124;6.018;2023-05-07T05:55:02;31.52;;;21.77;;
47599;SDS011;33323;52.124;6.018;2023-05-07T05:57:29;30.17;;;22.73;;
47599;SDS011;33323;52.124;6.018;2023-05-07T05:59:57;31.23;;;22.60;;
47599;SDS011;33323;52.124;6.018;2023-05-07T06:02:24;32.90;;;22.60;;
47599;SDS011;33323;52.124;6.018;2023-05-07T06:04:52;28.83;;;21.23;;
47599;SDS011;33323;52.124;6.018;2023-05-07T06:07:21;30.80;;;21.38;;
47599;SDS011;33323;52.124;6.018;2023-05-07T06:09:48;29.67;;;20.42;;
47599;SDS011;33323;52.124;6.018;2023-05-07T06:12:15;25.83;;;20.73;;
47599;SDS011;33323;52.124;6.018;2023-05-07T06:14:43;28.38;;;20.15;;
47599;SDS011;33323;52.124;6.018;2023-05-07T06:17:11;25.55;;;18.77;;
47599;SDS011;33323;52.124;6.018;2023-05-07T06:19:38;24.13;;;18.50;;
47599;SDS011;33323;52.124;6.018;2023-05-07T06:22:05;27.20;;;19.70;;
47599;SDS011;33323;52.124;6.018;2023-05-07T06:24:34;27.88;;;19.38;;
47599;SDS011;33323;52.124;6.018;2023-05-07T06:27:04;30.40;;;20.50;;
47599;SDS011;33323;52.124;6.018;2023-05-07T06:29:32;33.15;;;20.45;;
47599;SDS011;33323;52.124;6.018;2023-05-07T06:32:12;31.10;;;20.08;;
47599;SDS011;33323;52.124;6.018;2023-05-07T06:34:42;31.63;;;19.42;;
47599;SDS011;33323;52.124;6.018;2023-05-07T06:37:09;28.33;;;21.40;;
47599;SDS011;33323;52.124;6.018;2023-05-07T06:39:57;28.88;;;20.15;;
47599;SDS011;33323;52.124;6.018;2023-05-07T06:42:26;30.88;;;19.38;;
47599;SDS011;33323;52.124;6.018;2023-05-07T06:44:57;28.02;;;19.10;;
47599;SDS011;33323;52.124;6.018;2023-05-07T06:47:25;29.38;;;20.05;;
47599;SDS011;33323;52.124;6.018;2023-05-07T06:49:54;29.77;;;18.98;;
47599;SDS011;33323;52.124;6.018;2023-05-07T06:52:25;28.83;;;19.80;;
47599;SDS011;33323;52.124;6.018;2023-05-07T06:54:53;28.88;;;19.05;;
47599;SDS011;33323;52.124;6.018;2023-05-07T06:57:24;23.98;;;18.40;;
47599;SDS011;33323;52.124;6.018;2023-05-07T06:59:51;28.63;;;19.08;;
47599;SDS011;33323;52.124;6.018;2023-05-07T07:02:20;29.60;;;19.33;;
47599;SDS011;33323;52.124;6.018;2023-05-07T07:04:48;31.35;;;19.92;;
47599;SDS011;33323;52.124;6.018;2023-05-07T07:07:16;28.15;;;19.90;;
47599;SDS011;33323;52.124;6.018;2023-05-07T07:09:46;27.60;;;19.27;;
47599;SDS011;33323;52.124;6.018;2023-05-07T07:12:17;29.63;;;18.75;;
47599;SDS011;33323;52.124;6.018;2023-05-07T07:14:44;31.98;;;20.80;;
47599;SDS011;33323;52.124;6.018;2023-05-07T07:17:13;30.73;;;19.83;;
47599;SDS011;33323;52.124;6.018;2023-05-07T07:19:40;31.73;;;19.92;;
47599;SDS011;33323;52.124;6.018;2023-05-07T07:22:08;31.88;;;19.45;;
47599;SDS011;33323;52.124;6.018;2023-05-07T07:24:37;28.52;;;20.90;;
47599;SDS011;33323;52.124;6.018;2023-05-07T07:27:06;30.05;;;21.00;;
47599;SDS011;33323;52.124;6.018;2023-05-07T07:29:34;30.77;;;19.85;;
47599;SDS011;33323;52.124;6.018;2023-05-07T07:32:01;29.67;;;20.48;;
47599;SDS011;33323;52.124;6.018;2023-05-07T07:34:29;29.42;;;21.15;;
47599;SDS011;33323;52.124;6.018;2023-05-07T07:36:57;31.85;;;21.08;;
47599;SDS011;33323;52.124;6.018;2023-05-07T07:39:24;38.85;;;21.27;;
47599;SDS011;33323;52.124;6.018;2023-05-07T07:41:54;33.33;;;20.95;;
47599;SDS011;33323;52.124;6.018;2023-05-07T07:44:24;28.35;;;20.33;;
47599;SDS011;33323;52.124;6.018;2023-05-07T07:46:57;28.15;;;20.52;;
47599;SDS011;33323;52.124;6.018;2023-05-07T07:49:26;29.27;;;21.23;;
47599;SDS011;33323;52.124;6.018;2023-05-07T07:51:54;31.88;;;20.27;;
47599;SDS011;33323;52.124;6.018;2023-05-07T07:54:25;29.10;;;20.20;;
47599;SDS011;33323;52.124;6.018;2023-05-07T07:56:53;31.05;;;21.58;;
47599;SDS011;33323;52.124;6.018;2023-05-07T07:59:21;29.77;;;20.33;;
47599;SDS011;33323;52.124;6.018;2023-05-07T08:01:49;27.75;;;20.15;;
47599;SDS011;33323;52.124;6.018;2023-05-07T08:04:22;27.95;;;20.13;;
47599;SDS011;33323;52.124;6.018;2023-05-07T08:06:50;28.65;;;19.35;;
47599;SDS011;33323;52.124;6.018;2023-05-07T08:09:17;29.42;;;19.83;;
47599;SDS011;33323;52.124;6.018;2023-05-07T08:11:45;28.15;;;17.73;;
47599;SDS011;33323;52.124;6.018;2023-05-07T08:14:13;25.25;;;18.45;;
47599;SDS011;33323;52.124;6.018;2023-05-07T08:16:44;28.17;;;19.17;;
47599;SDS011;33323;52.124;6.018;2023-05-07T08:19:12;28.38;;;19.45;;
47599;SDS011;33323;52.124;6.018;2023-05-07T08:21:43;28.08;;;17.92;;
47599;SDS011;33323;52.124;6.018;2023-05-07T08:24:11;24.70;;;17.70;;
47599;SDS011;33323;52.124;6.018;2023-05-07T08:26:39;25.08;;;17.63;;
47599;SDS011;33323;52.124;6.018;2023-05-07T08:29:08;23.35;;;16.90;;
47599;SDS011;33323;52.124;6.018;2023-05-07T08:31:35;29.95;;;19.95;;
47599;SDS011;33323;52.124;6.018;2023-05-07T08:34:03;26.30;;;17.95;;
47599;SDS011;33323;52.124;6.018;2023-05-07T08:36:38;25.23;;;17.25;;
47599;SDS011;33323;52.124;6.018;2023-05-07T08:39:06;24.50;;;17.15;;
47599;SDS011;33323;52.124;6.018;2023-05-07T08:41:34;29.52;;;18.55;;
47599;SDS011;33323;52.124;6.018;2023-05-07T08:44:02;21.73;;;16.27;;
47599;SDS011;33323;52.124;6.018;2023-05-07T08:46:33;26.20;;;16.77;;
47599;SDS011;33323;52.124;6.018;2023-05-07T08:49:01;23.80;;;17.48;;
47599;SDS011;33323;52.124;6.018;2023-05-07T08:51:29;22.55;;;16.88;;
47599;SDS011;33323;52.124;6.018;2023-05-07T08:53:56;22.17;;;16.80;;
47599;SDS011;33323;52.124;6.018;2023-05-07T08:56:30;25.35;;;16.95;;
47599;SDS011;33323;52.124;6.018;2023-05-07T08:58:57;22.05;;;17.75;;
47599;SDS011;33323;52.124;6.018;2023-05-07T09:01:27;21.42;;;15.30;;
47599;SDS011;33323;52.124;6.018;2023-05-07T09:03:55;24.38;;;16.10;;
47599;SDS011;33323;52.124;6.018;2023-05-07T09:06:23;20.90;;;15.65;;
47599;SDS011;33323;52.124;6.018;2023-05-07T09:08:52;18.80;;;15.85;;
47599;SDS011;33323;52.124;6.018;2023-05-07T09:11:23;27.63;;;16.38;;
47599;SDS011;33323;52.124;6.018;2023-05-07T09:13:53;22.88;;;15.30;;
47599;SDS011;33323;52.124;6.018;2023-05-07T09:16:32;21.00;;;15.00;;
47599;SDS011;33323;52.124;6.018;2023-05-07T09:19:00;23.80;;;15.63;;
47599;SDS011;33323;52.124;6.018;2023-05-07T09:21:27;21.33;;;14.88;;
47599;SDS011;33323;52.124;6.018;2023-05-07T09:23:57;22.52;;;16.23;;
47599;SDS011;33323;52.124;6.018;2023-05-07T09:26:32;21.63;;;16.40;;
47599;SDS011;33323;52.124;6.018;2023-05-07T09:29:02;21.02;;;16.30;;
47599;SDS011;33323;52.124;6.018;2023-05-07T09:31:29;23.58;;;15.88;;
47599;SDS011;33323;52.124;6.018;2023-05-07T09:33:57;19.70;;;16.05;;
47599;SDS011;33323;52.124;6.018;2023-05-07T09:36:27;25.80;;;16.77;;
47599;SDS011;33323;52.124;6.018;2023-05-07T09:38:56;25.52;;;16.52;;
47599;SDS011;33323;52.124;6.018;2023-05-07T09:41:27;21.52;;;15.05;;
47599;SDS011;33323;52.124;6.018;2023-05-07T09:44:06;19.58;;;14.88;;
47599;SDS011;33323;52.124;6.018;2023-05-07T09:46:39;20.85;;;12.90;;
47599;SDS011;33323;52.124;6.018;2023-05-07T09:49:22;19.23;;;14.88;;
47599;SDS011;33323;52.124;6.018;2023-05-07T09:51:57;18.55;;;13.70;;
47599;SDS011;33323;52.124;6.018;2023-05-07T09:54:30;18.40;;;14.45;;
47599;SDS011;33323;52.124;6.018;2023-05-07T09:57:01;22.70;;;16.20;;
47599;SDS011;33323;52.124;6.018;2023-05-07T09:59:29;20.20;;;14.38;;
47599;SDS011;33323;52.124;6.018;2023-05-07T10:02:03;20.67;;;15.07;;
47599;SDS011;33323;52.124;6.018;2023-05-07T10:04:35;18.90;;;13.82;;
47599;SDS011;33323;52.124;6.018;2023-05-07T10:07:04;19.67;;;13.77;;
47599;SDS011;33323;52.124;6.018;2023-05-07T10:09:33;19.08;;;14.63;;
47599;SDS011;33323;52.124;6.018;2023-05-07T10:12:06;16.55;;;13.32;;
47599;SDS011;33323;52.124;6.018;2023-05-07T10:14:34;15.45;;;12.13;;
47599;SDS011;33323;52.124;6.018;2023-05-07T10:17:02;16.02;;;12.40;;
47599;SDS011;33323;52.124;6.018;2023-05-07T10:19:30;15.93;;;12.02;;
47599;SDS011;33323;52.124;6.018;2023-05-07T10:22:01;17.92;;;13.90;;
47599;SDS011;33323;52.124;6.018;2023-05-07T10:24:38;17.17;;;14.10;;
47599;SDS011;33323;52.124;6.018;2023-05-07T10:27:12;20.98;;;13.73;;
47599;SDS011;33323;52.124;6.018;2023-05-07T10:30:07;16.33;;;12.48;;
47599;SDS011;33323;52.124;6.018;2023-05-07T10:32:44;20.77;;;14.73;;
47599;SDS011;33323;52.124;6.018;2023-05-07T10:35:26;20.75;;;16.33;;
47599;SDS011;33323;52.124;6.018;2023-05-07T10:37:59;22.17;;;15.88;;
47599;SDS011;33323;52.124;6.018;2023-05-07T10:40:30;20.23;;;14.68;;
47599;SDS011;33323;52.124;6.018;2023-05-07T10:43:00;20.60;;;15.43;;
47599;SDS011;33323;52.124;6.018;2023-05-07T10:45:40;22.73;;;16.08;;
47599;SDS011;33323;52.124;6.018;2023-05-07T10:48:15;23.10;;;16.20;;
47599;SDS011;33323;52.124;6.018;2023-05-07T10:50:52;19.33;;;16.23;;
47599;SDS011;33323;52.124;6.018;2023-05-07T10:56:44;23.65;;;15.85;;
47599;SDS011;33323;52.124;6.018;2023-05-07T11:02:02;21.75;;;16.02;;
47599;SDS011;33323;52.124;6.018;2023-05-07T11:04:46;20.17;;;16.13;;
47599;SDS011;33323;52.124;6.018;2023-05-07T11:08:12;20.67;;;15.38;;
47599;SDS011;33323;52.124;6.018;2023-05-07T11:11:05;23.60;;;16.50;;
47599;SDS011;33323;52.124;6.018;2023-05-07T11:13:47;21.85;;;16.77;;
47599;SDS011;33323;52.124;6.018;2023-05-07T11:16:33;20.85;;;15.63;;
47599;SDS011;33323;52.124;6.018;2023-05-07T11:19:15;22.42;;;16.23;;
47599;SDS011;33323;52.124;6.018;2023-05-07T11:21:47;18.67;;;15.38;;
47599;SDS011;33323;52.124;6.018;2023-05-07T11:24:39;21.77;;;15.48;;
47599;SDS011;33323;52.124;6.018;2023-05-07T11:27:10;23.80;;;16.63;;
47599;SDS011;33323;52.124;6.018;2023-05-07T11:29:38;20.00;;;13.93;;
47599;SDS011;33323;52.124;6.018;2023-05-07T11:32:09;20.88;;;15.38;;
47599;SDS011;33323;52.124;6.018;2023-05-07T11:34:42;23.45;;;15.60;;
47599;SDS011;33323;52.124;6.018;2023-05-07T11:37:11;23.40;;;16.25;;
47599;SDS011;33323;52.124;6.018;2023-05-07T11:42:37;20.92;;;15.18;;
47599;SDS011;33323;52.124;6.018;2023-05-07T11:45:06;18.85;;;14.48;;
47599;SDS011;33323;52.124;6.018;2023-05-07T11:47:35;17.65;;;14.23;;
47599;SDS011;33323;52.124;6.018;2023-05-07T11:50:04;17.55;;;13.55;;
47599;SDS011;33323;52.124;6.018;2023-05-07T11:52:34;22.77;;;15.05;;
47599;SDS011;33323;52.124;6.018;2023-05-07T11:55:02;22.02;;;14.68;;
47599;SDS011;33323;52.124;6.018;2023-05-07T11:57:32;20.42;;;14.88;;
47599;SDS011;33323;52.124;6.018;2023-05-07T12:00:00;21.63;;;16.58;;
47599;SDS011;33323;52.124;6.018;2023-05-07T12:02:40;17.92;;;14.40;;
47599;SDS011;33323;52.124;6.018;2023-05-07T12:05:08;20.05;;;13.57;;
47599;SDS011;33323;52.124;6.018;2023-05-07T12:07:36;21.17;;;14.73;;
47599;SDS011;33323;52.124;6.018;2023-05-07T12:10:06;19.92;;;14.30;;
47599;SDS011;33323;52.124;6.018;2023-05-07T12:12:40;15.70;;;12.57;;
47599;SDS011;33323;52.124;6.018;2023-05-07T12:15:08;16.55;;;13.00;;
47599;SDS011;33323;52.124;6.018;2023-05-07T12:17:36;17.02;;;12.82;;
47599;SDS011;33323;52.124;6.018;2023-05-07T12:20:04;18.10;;;13.73;;
47599;SDS011;33323;52.124;6.018;2023-05-07T12:22:33;18.52;;;14.00;;
47599;SDS011;33323;52.124;6.018;2023-05-07T12:25:00;18.98;;;12.30;;
47599;SDS011;33323;52.124;6.018;2023-05-07T12:27:28;17.58;;;13.13;;
47599;SDS011;33323;52.124;6.018;2023-05-07T12:29:57;18.80;;;13.02;;
47599;SDS011;33323;52.124;6.018;2023-05-07T12:32:25;19.00;;;14.07;;
47599;SDS011;33323;52.124;6.018;2023-05-07T12:34:52;23.15;;;15.25;;
47599;SDS011;33323;52.124;6.018;2023-05-07T12:37:22;16.65;;;14.10;;
47599;SDS011;33323;52.124;6.018;2023-05-07T12:40:10;19.50;;;14.20;;
47599;SDS011;33323;52.124;6.018;2023-05-07T12:42:40;16.10;;;12.98;;
47599;SDS011;33323;52.124;6.018;2023-05-07T12:45:09;21.55;;;13.88;;
47599;SDS011;33323;52.124;6.018;2023-05-07T12:47:37;15.52;;;12.77;;
47599;SDS011;33323;52.124;6.018;2023-05-07T12:50:05;17.73;;;13.18;;
47599;SDS011;33323;52.124;6.018;2023-05-07T12:52:33;18.38;;;12.70;;
47599;SDS011;33323;52.124;6.018;2023-05-07T12:55:04;18.02;;;13.75;;
47599;SDS011;33323;52.124;6.018;2023-05-07T12:57:39;19.67;;;14.50;;
47599;SDS011;33323;52.124;6.018;2023-05-07T13:00:08;18.00;;;14.32;;
47599;SDS011;33323;52.124;6.018;2023-05-07T13:02:41;15.80;;;13.55;;
47599;SDS011;33323;52.124;6.018;2023-05-07T13:05:13;21.60;;;13.57;;
47599;SDS011;33323;52.124;6.018;2023-05-07T13:07:40;19.38;;;14.93;;
47599;SDS011;33323;52.124;6.018;2023-05-07T13:10:08;18.65;;;13.90;;
47599;SDS011;33323;52.124;6.018;2023-05-07T13:12:35;19.45;;;14.15;;
47599;SDS011;33323;52.124;6.018;2023-05-07T13:15:03;18.20;;;14.82;;
47599;SDS011;33323;52.124;6.018;2023-05-07T13:17:30;21.95;;;13.80;;
47599;SDS011;33323;52.124;6.018;2023-05-07T13:19:58;17.25;;;13.57;;
47599;SDS011;33323;52.124;6.018;2023-05-07T13:22:25;18.50;;;13.85;;
47599;SDS011;33323;52.124;6.018;2023-05-07T13:24:52;20.30;;;13.68;;
47599;SDS011;33323;52.124;6.018;2023-05-07T13:27:19;18.77;;;13.80;;
47599;SDS011;33323;52.124;6.018;2023-05-07T13:29:46;20.58;;;13.63;;
47599;SDS011;33323;52.124;6.018;2023-05-07T13:32:14;17.60;;;14.13;;
47599;SDS011;33323;52.124;6.018;2023-05-07T13:34:41;16.77;;;13.18;;
47599;SDS011;33323;52.124;6.018;2023-05-07T13:37:08;17.73;;;12.88;;
47599;SDS011;33323;52.124;6.018;2023-05-07T13:39:37;17.10;;;12.07;;
47599;SDS011;33323;52.124;6.018;2023-05-07T13:42:04;18.15;;;12.20;;
47599;SDS011;33323;52.124;6.018;2023-05-07T13:44:31;17.70;;;12.43;;
47599;SDS011;33323;52.124;6.018;2023-05-07T13:46:58;21.52;;;12.80;;
47599;SDS011;33323;52.124;6.018;2023-05-07T13:49:26;19.23;;;14.10;;
47599;SDS011;33323;52.124;6.018;2023-05-07T13:51:54;18.17;;;12.60;;
47599;SDS011;33323;52.124;6.018;2023-05-07T13:54:21;19.35;;;12.85;;
47599;SDS011;33323;52.124;6.018;2023-05-07T13:56:48;16.40;;;13.80;;
47599;SDS011;33323;52.124;6.018;2023-05-07T13:59:16;17.10;;;12.32;;
47599;SDS011;33323;52.124;6.018;2023-05-07T14:01:43;15.75;;;12.10;;
47599;SDS011;33323;52.124;6.018;2023-05-07T14:04:10;16.80;;;11.68;;
47599;SDS011;33323;52.124;6.018;2023-05-07T14:06:37;17.70;;;12.65;;
47599;SDS011;33323;52.124;6.018;2023-05-07T14:09:05;18.98;;;14.25;;
47599;SDS011;33323;52.124;6.018;2023-05-07T14:11:32;21.00;;;12.93;;
47599;SDS011;33323;52.124;6.018;2023-05-07T14:14:01;18.85;;;12.70;;
47599;SDS011;33323;52.124;6.018;2023-05-07T14:16:28;17.80;;;14.00;;
47599;SDS011;33323;52.124;6.018;2023-05-07T14:18:55;17.90;;;13.07;;
47599;SDS011;33323;52.124;6.018;2023-05-07T14:21:24;18.42;;;13.43;;
47599;SDS011;33323;52.124;6.018;2023-05-07T14:23:51;20.63;;;14.65;;
47599;SDS011;33323;52.124;6.018;2023-05-07T14:26:18;19.73;;;13.20;;
47599;SDS011;33323;52.124;6.018;2023-05-07T14:28:46;18.42;;;13.38;;
47599;SDS011;33323;52.124;6.018;2023-05-07T14:31:13;17.85;;;13.60;;
47599;SDS011;33323;52.124;6.018;2023-05-07T14:33:40;19.30;;;13.88;;
47599;SDS011;33323;52.124;6.018;2023-05-07T14:36:07;20.80;;;15.00;;
47599;SDS011;33323;52.124;6.018;2023-05-07T14:38:34;19.83;;;14.88;;
47599;SDS011;33323;52.124;6.018;2023-05-07T14:41:02;26.05;;;18.38;;
47599;SDS011;33323;52.124;6.018;2023-05-07T14:43:29;23.35;;;15.95;;
47599;SDS011;33323;52.124;6.018;2023-05-07T14:45:56;21.95;;;17.85;;
47599;SDS011;33323;52.124;6.018;2023-05-07T14:48:23;25.67;;;17.33;;
47599;SDS011;33323;52.124;6.018;2023-05-07T14:50:50;24.92;;;17.77;;
47599;SDS011;33323;52.124;6.018;2023-05-07T14:53:17;26.77;;;18.55;;
47599;SDS011;33323;52.124;6.018;2023-05-07T14:55:44;24.80;;;18.15;;
47599;SDS011;33323;52.124;6.018;2023-05-07T14:58:11;28.60;;;18.70;;